In Rescue
 
Open Full Screen Window  High Contrast Mode
March 04, 2021 3:14 AM CST
Weather Information
Wind Direction
  ---
Wind Speed
  00 kt (0 mph)
Wind Gust
  00 kt (0 mph)
Altimeter
30.31 in
Visibility
10 SM
Temperature
-13° C
F
Dewpoint
-14° C
F
Humidity
92%
1hr Rain Fall
00.00 in.
24hr Rain Fall
00.00 in.
Sky Condition
Missing
VFR

METAR KCDD 040914Z AUTO 00000KT 10SM M13/M14 A3031 RMK AO2

FAA Disclaimer: The data displayed is for advisory purposes only and is not to be used for flight planning or operations.
Missing Cloud Data